createdAt,value
2018-10-07T00:02:27.976Z,15.22
2018-10-07T00:05:00.578Z,15.22
2018-10-07T00:07:33.081Z,15.30
2018-10-07T00:10:07.344Z,15.37
2018-10-07T00:12:39.876Z,15.39
2018-10-07T00:15:13.910Z,15.38
2018-10-07T00:17:46.924Z,15.35
2018-10-07T00:20:19.439Z,15.33
2018-10-07T00:22:52.022Z,15.28
2018-10-07T00:25:25.064Z,15.24
2018-10-07T00:27:57.623Z,15.25
2018-10-07T00:30:30.399Z,15.27
2018-10-07T00:33:03.385Z,15.25
2018-10-07T00:35:36.944Z,15.24
2018-10-07T00:38:10.223Z,15.23
2018-10-07T00:40:43.177Z,15.20
2018-10-07T00:43:15.773Z,15.20
2018-10-07T00:45:48.986Z,15.16
2018-10-07T00:48:21.575Z,15.12
2018-10-07T00:50:54.487Z,15.04
2018-10-07T00:53:27.028Z,14.99
2018-10-07T00:56:00.808Z,14.95
2018-10-07T00:58:34.300Z,14.93
2018-10-07T01:01:07.456Z,14.89
2018-10-07T01:03:40.283Z,14.84
2018-10-07T01:06:13.552Z,14.81
2018-10-07T01:08:46.069Z,14.78
2018-10-07T01:11:20.856Z,14.78
2018-10-07T01:13:56.840Z,14.80
2018-10-07T01:16:29.967Z,14.81
2018-10-07T01:19:02.492Z,14.81
2018-10-07T01:21:36.030Z,14.80
2018-10-07T01:24:08.729Z,14.80
2018-10-07T01:26:41.415Z,14.80
2018-10-07T01:29:15.131Z,14.80
2018-10-07T01:31:47.805Z,14.79
2018-10-07T01:34:20.830Z,14.79
2018-10-07T01:36:54.812Z,14.82
2018-10-07T01:39:27.642Z,14.82
2018-10-07T01:42:01.092Z,14.82
2018-10-07T01:44:33.989Z,14.81
2018-10-07T01:47:06.597Z,14.79
2018-10-07T01:49:39.212Z,14.80
2018-10-07T01:52:12.758Z,14.79
2018-10-07T01:54:45.394Z,14.83
2018-10-07T01:57:18.822Z,14.81
2018-10-07T01:59:51.747Z,14.79
2018-10-07T02:02:24.495Z,14.82
2018-10-07T02:04:57.126Z,14.84
2018-10-07T02:07:33.508Z,14.84
2018-10-07T02:10:06.343Z,14.82
2018-10-07T02:12:39.080Z,14.81
2018-10-07T02:15:14.549Z,14.76
2018-10-07T02:17:47.304Z,14.70
2018-10-07T02:20:19.948Z,14.64
2018-10-07T02:22:54.136Z,14.68
2018-10-07T02:25:27.548Z,14.64
2018-10-07T02:28:00.363Z,14.58
2018-10-07T02:30:33.331Z,14.58
2018-10-07T02:33:06.769Z,14.54
2018-10-07T02:35:40.917Z,14.58
2018-10-07T02:38:13.841Z,14.61
2018-10-07T02:40:46.469Z,14.63
2018-10-07T02:43:18.997Z,14.64
2018-10-07T02:45:52.905Z,14.66
2018-10-07T02:48:25.388Z,14.69
2018-10-07T02:50:58.093Z,14.76
2018-10-07T02:53:32.362Z,14.75
2018-10-07T02:56:06.465Z,14.74
2018-10-07T02:58:38.957Z,14.76
2018-10-07T03:01:11.797Z,14.76
2018-10-07T03:03:44.561Z,14.77
2018-10-07T03:06:17.440Z,14.76
2018-10-07T03:08:50.293Z,14.78
2018-10-07T03:11:23.347Z,14.77
2018-10-07T03:13:56.486Z,14.74
2018-10-07T03:16:29.432Z,14.75
2018-10-07T03:19:02.050Z,14.70
2018-10-07T03:21:34.504Z,14.69
2018-10-07T03:24:07.483Z,14.68
2018-10-07T03:26:41.100Z,14.69
2018-10-07T03:29:13.696Z,14.72
2018-10-07T03:31:46.705Z,14.73
2018-10-07T03:34:19.485Z,14.72
2018-10-07T03:36:52.032Z,14.71
2018-10-07T03:39:25.985Z,14.70
2018-10-07T03:41:58.457Z,14.65
2018-10-07T03:44:31.095Z,14.66
2018-10-07T03:47:09.232Z,14.66
2018-10-07T03:49:41.828Z,14.72
2018-10-07T03:52:14.171Z,14.71
2018-10-07T03:54:46.952Z,14.77
2018-10-07T03:57:19.745Z,14.74
2018-10-07T03:59:53.108Z,14.73
2018-10-07T04:02:27.183Z,14.68
2018-10-07T04:04:59.671Z,14.63
2018-10-07T04:07:32.383Z,14.60
2018-10-07T04:10:07.332Z,14.57
2018-10-07T04:12:40.167Z,14.50
2018-10-07T04:15:14.857Z,14.44
2018-10-07T04:17:48.828Z,14.36
2018-10-07T04:20:21.415Z,14.28
2018-10-07T04:22:53.937Z,14.19
2018-10-07T04:25:26.814Z,14.11
2018-10-07T04:27:59.349Z,13.99
2018-10-07T04:30:32.883Z,13.93
2018-10-07T04:33:07.588Z,13.85
2018-10-07T04:35:40.420Z,13.83
2018-10-07T04:38:13.385Z,13.68
2018-10-07T04:40:46.396Z,13.59
2018-10-07T04:43:18.873Z,13.52
2018-10-07T04:45:51.538Z,13.38
2018-10-07T04:48:24.493Z,13.29
2018-10-07T04:50:58.336Z,13.19
2018-10-07T04:53:31.329Z,13.10
2018-10-07T04:56:05.109Z,13.01
2018-10-07T04:58:37.771Z,12.91
2018-10-07T05:01:10.483Z,12.87
2018-10-07T05:03:43.313Z,12.73
2018-10-07T05:06:19.025Z,12.71
2018-10-07T05:08:56.122Z,12.62
2018-10-07T05:11:32.269Z,12.61
2018-10-07T05:14:11.380Z,12.56
2018-10-07T05:16:53.571Z,12.46
2018-10-07T05:19:26.221Z,12.42
2018-10-07T05:22:00.225Z,12.37
2018-10-07T05:24:32.700Z,12.33
2018-10-07T05:27:05.377Z,12.29
2018-10-07T05:29:38.288Z,12.22
2018-10-07T05:32:10.878Z,12.17
2018-10-07T05:34:43.432Z,12.11
2018-10-07T05:37:17.261Z,12.04
2018-10-07T05:39:50.061Z,12.01
2018-10-07T05:42:22.823Z,11.95
2018-10-07T05:44:55.551Z,11.88
2018-10-07T05:47:28.256Z,11.82
2018-10-07T05:50:00.712Z,11.74
2018-10-07T05:52:33.952Z,11.64
2018-10-07T05:55:06.941Z,11.57
2018-10-07T05:57:42.324Z,11.49
2018-10-07T06:00:20.313Z,11.45
2018-10-07T06:03:05.307Z,11.41
2018-10-07T06:05:39.748Z,11.37
2018-10-07T06:08:18.756Z,11.38
2018-10-07T06:10:51.561Z,11.39
2018-10-07T06:13:25.745Z,11.40
2018-10-07T06:15:58.336Z,11.41
2018-10-07T06:18:33.489Z,11.41
2018-10-07T06:21:06.731Z,11.37
2018-10-07T06:23:40.253Z,11.39
2018-10-07T06:26:16.884Z,11.38
2018-10-07T06:28:50.201Z,11.35
2018-10-07T06:31:22.817Z,11.35
2018-10-07T06:33:57.756Z,11.33
2018-10-07T06:36:30.435Z,11.29
2018-10-07T06:39:04.156Z,11.29
2018-10-07T06:41:37.276Z,11.30
2018-10-07T06:44:10.134Z,11.33
2018-10-07T06:46:46.929Z,11.28
2018-10-07T06:49:20.469Z,11.23
2018-10-07T06:51:53.254Z,11.28
2018-10-07T06:54:25.930Z,11.28
2018-10-07T06:56:58.820Z,11.24
2018-10-07T06:59:31.910Z,11.22
2018-10-07T07:02:05.117Z,11.18
2018-10-07T07:04:38.185Z,11.17
2018-10-07T07:07:10.725Z,11.13
2018-10-07T07:09:44.993Z,11.14
2018-10-07T07:12:20.181Z,11.10
2018-10-07T07:14:52.823Z,11.09
2018-10-07T07:17:25.333Z,11.02
2018-10-07T07:19:58.501Z,11.00
2018-10-07T07:22:30.923Z,10.98
2018-10-07T07:25:04.728Z,10.98
2018-10-07T07:27:37.916Z,10.96
2018-10-07T07:30:13.656Z,10.93
2018-10-07T07:32:48.572Z,10.97
2018-10-07T07:35:25.026Z,10.95
2018-10-07T07:37:58.836Z,10.94
2018-10-07T07:40:37.084Z,10.99
2018-10-07T07:43:09.960Z,11.06
2018-10-07T07:45:43.741Z,11.06
2018-10-07T07:48:16.375Z,11.12
2018-10-07T07:50:48.940Z,11.13
2018-10-07T07:53:24.030Z,11.12
2018-10-07T07:55:56.561Z,11.18
2018-10-07T07:58:32.580Z,11.23
2018-10-07T08:01:07.165Z,11.27
2018-10-07T08:03:39.855Z,11.28
2018-10-07T08:06:12.454Z,11.31
2018-10-07T08:08:45.097Z,11.38
2018-10-07T08:11:18.368Z,11.35
2018-10-07T08:13:51.357Z,11.39
2018-10-07T08:16:24.908Z,11.47
2018-10-07T08:18:57.611Z,11.50
2018-10-07T08:21:34.515Z,11.52
2018-10-07T08:24:06.968Z,11.57
2018-10-07T08:26:41.788Z,11.59
2018-10-07T08:29:15.861Z,11.62
2018-10-07T08:31:49.558Z,11.58
2018-10-07T08:34:21.984Z,11.52
2018-10-07T08:36:56.452Z,11.49
2018-10-07T08:39:29.249Z,11.45
2018-10-07T08:42:02.394Z,11.52
2018-10-07T08:44:36.844Z,11.53
2018-10-07T08:47:09.333Z,11.54
2018-10-07T08:49:43.007Z,11.64
2018-10-07T08:52:17.636Z,11.73
2018-10-07T08:54:50.941Z,11.81
2018-10-07T08:57:23.605Z,11.84
2018-10-07T08:59:56.612Z,11.91
2018-10-07T09:02:29.302Z,11.96
2018-10-07T09:05:04.269Z,12.09
2018-10-07T09:07:38.929Z,12.20
2018-10-07T09:10:11.326Z,12.34
2018-10-07T09:12:44.427Z,12.21
2018-10-07T09:15:17.992Z,12.09
2018-10-07T09:17:51.752Z,12.04
2018-10-07T09:20:40.803Z,12.09
2018-10-07T09:23:18.212Z,12.14
2018-10-07T09:25:51.376Z,12.14
2018-10-07T09:28:25.065Z,12.16
2018-10-07T09:30:57.962Z,12.20
2018-10-07T09:33:31.448Z,12.39
2018-10-07T09:36:05.417Z,12.96
2018-10-07T09:38:39.425Z,13.76
2018-10-07T09:41:12.233Z,14.10
2018-10-07T09:43:44.972Z,14.42
2018-10-07T09:46:20.816Z,14.46
2018-10-07T09:48:54.834Z,14.58
2018-10-07T09:51:28.610Z,14.75
2018-10-07T09:54:01.346Z,14.93
2018-10-07T09:56:35.197Z,15.08
2018-10-07T09:59:10.914Z,15.28
2018-10-07T10:01:44.628Z,15.30
2018-10-07T10:04:26.293Z,15.26
2018-10-07T10:07:00.219Z,14.87
2018-10-07T10:09:35.800Z,14.60
2018-10-07T10:12:11.443Z,14.51
2018-10-07T10:14:45.144Z,14.81
2018-10-07T10:17:22.668Z,15.08
2018-10-07T10:20:08.979Z,15.07
2018-10-07T10:23:08.555Z,15.21
2018-10-07T10:26:11.681Z,15.80
2018-10-07T10:29:36.780Z,16.29
2018-10-07T10:32:27.908Z,16.60
2018-10-07T10:35:39.722Z,16.72
2018-10-07T10:38:46.978Z,16.89
2018-10-07T10:42:45.325Z,17.16
2018-10-07T10:45:52.552Z,17.17
2018-10-07T10:48:45.217Z,17.19
2018-10-07T10:52:06.873Z,17.20
2018-10-07T10:55:28.808Z,17.49
2018-10-07T10:58:20.772Z,17.76
2018-10-07T11:01:18.310Z,17.68
2018-10-07T11:04:29.322Z,17.36
2018-10-07T11:07:44.731Z,17.14
2018-10-07T11:10:44.585Z,17.08
2018-10-07T11:13:44.084Z,17.03
2018-10-07T11:16:52.949Z,17.22
2018-10-07T11:19:52.055Z,17.36
2018-10-07T11:23:14.082Z,17.24
2018-10-07T11:26:31.553Z,17.23
2018-10-07T11:30:01.129Z,17.02
2018-10-07T11:33:40.665Z,16.92
2018-10-07T11:37:30.810Z,17.28
2018-10-07T11:41:00.136Z,17.11
2018-10-07T11:44:37.005Z,17.05
2018-10-07T11:48:01.841Z,17.16
2018-10-07T11:51:08.757Z,17.35
2018-10-07T11:53:53.844Z,17.41
2018-10-07T11:56:29.277Z,17.48
2018-10-07T11:59:06.504Z,17.51
2018-10-07T12:01:49.964Z,17.37
2018-10-07T12:04:25.924Z,17.13
2018-10-07T12:06:58.886Z,16.99
2018-10-07T12:09:31.537Z,16.82
2018-10-07T12:12:04.818Z,16.67
2018-10-07T12:14:41.310Z,16.64
2018-10-07T12:17:15.969Z,16.70
2018-10-07T12:19:50.417Z,16.80
2018-10-07T12:22:24.811Z,16.75
2018-10-07T12:24:57.738Z,16.78
2018-10-07T12:27:33.086Z,16.79
2018-10-07T12:30:07.222Z,16.78
2018-10-07T12:32:44.590Z,16.92
2018-10-07T12:35:18.457Z,17.10
2018-10-07T12:37:54.033Z,17.05
2018-10-07T12:40:29.361Z,17.04
2018-10-07T12:43:02.725Z,17.09
2018-10-07T12:45:44.043Z,17.07
2018-10-07T12:48:16.892Z,17.19
2018-10-07T12:50:50.984Z,17.36
2018-10-07T12:53:27.169Z,17.58
2018-10-07T12:56:02.332Z,17.97
2018-10-07T12:58:35.304Z,18.10
2018-10-07T13:01:10.242Z,17.98
2018-10-07T13:03:43.728Z,17.96
2018-10-07T13:06:20.157Z,18.05
2018-10-07T13:08:55.460Z,18.16
2018-10-07T13:11:30.493Z,18.13
2018-10-07T13:14:05.635Z,18.05
2018-10-07T13:16:39.282Z,18.07
2018-10-07T13:19:14.024Z,18.04
2018-10-07T13:21:49.341Z,18.14
2018-10-07T13:24:23.253Z,18.57
2018-10-07T13:26:56.772Z,18.71
2018-10-07T13:29:33.912Z,18.71
2018-10-07T13:32:07.546Z,18.69
2018-10-07T13:34:42.441Z,18.70
2018-10-07T13:37:16.418Z,18.78
2018-10-07T13:39:56.995Z,18.83
2018-10-07T13:42:30.634Z,18.93
2018-10-07T13:45:06.261Z,18.83
2018-10-07T13:47:45.817Z,18.80
2018-10-07T13:50:24.597Z,18.77
2018-10-07T13:53:03.380Z,19.01
2018-10-07T13:55:45.261Z,19.17
2018-10-07T13:58:23.301Z,19.29
2018-10-07T14:01:02.497Z,19.46
2018-10-07T14:03:41.817Z,19.49
2018-10-07T14:06:20.372Z,19.54
2018-10-07T14:08:58.556Z,19.90
2018-10-07T14:11:36.207Z,20.16
2018-10-07T14:14:14.467Z,20.47
2018-10-07T14:16:52.784Z,20.61
2018-10-07T14:19:39.870Z,20.55
2018-10-07T14:22:18.504Z,20.47
2018-10-07T14:24:57.414Z,20.46
2018-10-07T14:27:38.732Z,19.94
2018-10-07T14:30:17.975Z,19.29
2018-10-07T14:32:56.460Z,18.87
2018-10-07T14:35:36.098Z,18.64
2018-10-07T14:38:13.633Z,18.60
2018-10-07T14:40:51.502Z,18.58
2018-10-07T14:43:28.985Z,18.39
2018-10-07T14:46:07.278Z,18.02
2018-10-07T14:48:44.781Z,17.66
2018-10-07T14:51:23.945Z,17.54
2018-10-07T14:54:02.254Z,17.48
2018-10-07T14:56:39.926Z,17.34
2018-10-07T14:59:20.049Z,17.15
2018-10-07T15:01:58.324Z,16.99
2018-10-07T15:04:36.037Z,16.91
2018-10-07T15:07:14.235Z,16.83
2018-10-07T15:09:51.823Z,16.72
2018-10-07T15:12:29.503Z,16.56
2018-10-07T15:15:13.547Z,16.49
2018-10-07T15:17:52.342Z,16.49
2018-10-07T15:20:30.112Z,16.61
2018-10-07T15:23:08.987Z,16.81
2018-10-07T15:25:49.161Z,17.02
2018-10-07T15:28:32.219Z,17.21
2018-10-07T15:31:12.236Z,17.21
2018-10-07T15:33:50.755Z,17.22
2018-10-07T15:36:28.177Z,17.26
2018-10-07T15:39:08.531Z,17.25
2018-10-07T15:41:46.563Z,17.20
2018-10-07T15:44:24.752Z,17.19
2018-10-07T15:47:06.325Z,17.00
2018-10-07T15:49:44.466Z,16.77
2018-10-07T15:52:22.253Z,16.63
2018-10-07T15:54:59.847Z,16.49
2018-10-07T15:57:39.725Z,16.37
2018-10-07T16:00:18.348Z,16.24
2018-10-07T16:02:56.752Z,16.17
2018-10-07T16:05:34.779Z,16.10
2018-10-07T16:08:18.495Z,16.13
2018-10-07T16:10:57.510Z,16.13
2018-10-07T16:13:35.413Z,16.16
2018-10-07T16:16:13.011Z,16.09
2018-10-07T16:18:51.831Z,15.92
2018-10-07T16:21:31.441Z,15.72
2018-10-07T16:24:10.991Z,15.50
2018-10-07T16:26:49.418Z,15.29
2018-10-07T16:29:26.949Z,15.08
2018-10-07T16:32:08.608Z,14.92
2018-10-07T16:34:48.097Z,14.78
2018-10-07T16:37:27.837Z,14.57
2018-10-07T16:40:06.097Z,14.36
2018-10-07T16:42:47.472Z,14.19
2018-10-07T16:45:26.969Z,14.01
2018-10-07T16:48:04.748Z,13.84
2018-10-07T16:50:45.689Z,13.70
2018-10-07T16:53:27.905Z,13.55
2018-10-07T16:56:11.955Z,13.41
2018-10-07T16:58:49.721Z,13.24
2018-10-07T17:01:30.617Z,13.14
2018-10-07T17:04:09.305Z,12.98
2018-10-07T17:06:48.362Z,12.84
2018-10-07T17:09:26.990Z,12.71
2018-10-07T17:12:05.536Z,12.61
2018-10-07T17:14:42.955Z,12.55
2018-10-07T17:17:23.715Z,12.53
2018-10-07T17:20:02.192Z,12.44
2018-10-07T17:22:42.489Z,12.32
2018-10-07T17:25:24.532Z,12.16
2018-10-07T17:28:05.052Z,11.98
2018-10-07T17:30:43.884Z,11.79
2018-10-07T17:33:22.377Z,11.63
2018-10-07T17:36:02.366Z,11.51
2018-10-07T17:38:42.747Z,11.36
2018-10-07T17:41:22.959Z,11.17
2018-10-07T17:44:09.734Z,11.03
2018-10-07T17:46:53.498Z,10.83
2018-10-07T17:49:35.153Z,10.68
2018-10-07T17:52:12.764Z,10.52
2018-10-07T17:55:03.796Z,10.39
2018-10-07T17:57:43.133Z,10.30
2018-10-07T18:00:23.226Z,10.26
2018-10-07T18:03:03.578Z,10.25
2018-10-07T18:05:42.297Z,10.24
2018-10-07T18:08:20.162Z,10.26
2018-10-07T18:10:59.540Z,10.28
2018-10-07T18:13:39.246Z,10.26
2018-10-07T18:16:17.432Z,10.23
2018-10-07T18:18:57.133Z,10.23
2018-10-07T18:21:34.524Z,10.22
2018-10-07T18:24:14.026Z,10.17
2018-10-07T18:26:53.761Z,10.12
2018-10-07T18:29:32.485Z,10.04
2018-10-07T18:32:12.159Z,9.98
2018-10-07T18:34:50.661Z,9.89
2018-10-07T18:37:29.104Z,9.80
2018-10-07T18:40:08.464Z,9.74
2018-10-07T18:42:49.232Z,9.66
2018-10-07T18:45:29.229Z,9.59
2018-10-07T18:48:08.622Z,9.48
2018-10-07T18:50:46.535Z,9.34
2018-10-07T18:53:25.900Z,9.08
2018-10-07T18:56:06.342Z,8.90
2018-10-07T18:58:44.164Z,8.70
2018-10-07T19:01:25.160Z,8.64
2018-10-07T19:04:04.693Z,8.55
2018-10-07T19:06:43.999Z,8.39
2018-10-07T19:09:24.853Z,8.30
2018-10-07T19:12:08.579Z,8.36
2018-10-07T19:14:49.426Z,8.45
2018-10-07T19:17:27.645Z,8.65
2018-10-07T19:20:06.340Z,8.82
2018-10-07T19:22:47.745Z,8.86
2018-10-07T19:25:30.778Z,8.82
2018-10-07T19:28:09.419Z,8.68
2018-10-07T19:30:50.335Z,8.48
2018-10-07T19:33:32.353Z,8.30
2018-10-07T19:36:09.931Z,8.04
2018-10-07T19:38:49.495Z,7.87
2018-10-07T19:41:30.263Z,7.75
2018-10-07T19:44:13.252Z,7.63
2018-10-07T19:46:52.821Z,7.69
2018-10-07T19:49:33.297Z,7.56
2018-10-07T19:52:08.922Z,7.39
2018-10-07T19:54:43.613Z,7.22
2018-10-07T19:57:22.134Z,7.15
2018-10-07T20:00:01.112Z,7.12
2018-10-07T20:02:39.829Z,7.05
2018-10-07T20:05:19.017Z,7.00
2018-10-07T20:07:58.461Z,7.04
2018-10-07T20:10:38.593Z,7.03
2018-10-07T20:13:18.146Z,6.89
2018-10-07T20:15:58.637Z,6.77
2018-10-07T20:18:34.905Z,6.62
2018-10-07T20:21:13.228Z,6.51
2018-10-07T20:23:49.894Z,6.43
2018-10-07T20:26:27.443Z,6.32
2018-10-07T20:29:01.945Z,6.23
2018-10-07T20:31:36.374Z,6.19
2018-10-07T20:34:11.224Z,6.18
2018-10-07T20:36:47.138Z,6.16
2018-10-07T20:39:20.669Z,6.16
2018-10-07T20:41:54.083Z,6.18
2018-10-07T20:44:37.088Z,6.20
2018-10-07T20:47:12.616Z,6.21
2018-10-07T20:49:46.704Z,6.19
2018-10-07T20:52:25.210Z,6.22
2018-10-07T20:55:01.408Z,6.24
2018-10-07T20:57:35.663Z,6.31
2018-10-07T21:00:27.021Z,6.43
2018-10-07T21:03:03.961Z,6.49
2018-10-07T21:05:39.536Z,6.56
2018-10-07T21:08:14.989Z,6.66
2018-10-07T21:10:47.644Z,6.84
2018-10-07T21:13:22.467Z,6.81
2018-10-07T21:15:58.285Z,6.72
2018-10-07T21:18:32.950Z,6.63
2018-10-07T21:21:07.099Z,6.60
2018-10-07T21:23:40.121Z,6.60
2018-10-07T21:26:13.754Z,6.60
2018-10-07T21:28:48.751Z,6.67
2018-10-07T21:31:21.881Z,6.76
2018-10-07T21:33:54.503Z,6.88
2018-10-07T21:36:29.614Z,7.04
2018-10-07T21:39:06.216Z,7.15
2018-10-07T21:41:39.115Z,7.02
2018-10-07T21:44:14.297Z,6.82
2018-10-07T21:46:48.629Z,6.68
2018-10-07T21:49:24.801Z,6.57
2018-10-07T21:51:58.811Z,6.49
2018-10-07T21:54:33.641Z,6.34
2018-10-07T21:57:06.848Z,6.29
2018-10-07T21:59:39.999Z,6.63
2018-10-07T22:02:13.877Z,6.98
2018-10-07T22:04:48.002Z,7.21
2018-10-07T22:07:25.353Z,7.22
2018-10-07T22:09:57.915Z,7.05
2018-10-07T22:12:33.088Z,6.95
2018-10-07T22:15:13.691Z,7.10
2018-10-07T22:17:47.252Z,7.21
2018-10-07T22:20:20.233Z,7.03
2018-10-07T22:22:54.068Z,6.77
2018-10-07T22:25:26.641Z,6.56
2018-10-07T22:27:59.676Z,6.36
2018-10-07T22:30:34.910Z,6.16
2018-10-07T22:33:07.596Z,6.02
2018-10-07T22:35:44.620Z,5.92
2018-10-07T22:38:19.769Z,5.85
2018-10-07T22:40:53.462Z,5.74
2018-10-07T22:43:26.516Z,5.62
2018-10-07T22:45:59.837Z,5.50
2018-10-07T22:48:35.952Z,5.44
2018-10-07T22:51:09.565Z,5.36
2018-10-07T22:53:42.972Z,5.29
2018-10-07T22:56:16.265Z,5.41
2018-10-07T22:58:49.886Z,5.44
2018-10-07T23:01:24.585Z,5.49
2018-10-07T23:04:00.000Z,5.55
2018-10-07T23:06:34.572Z,5.54
2018-10-07T23:09:12.451Z,5.44
2018-10-07T23:11:45.307Z,5.34
2018-10-07T23:14:20.169Z,5.27
2018-10-07T23:16:52.957Z,5.22
2018-10-07T23:19:25.660Z,5.13
2018-10-07T23:21:59.136Z,5.03
2018-10-07T23:24:31.674Z,5.05
2018-10-07T23:27:04.520Z,5.16
2018-10-07T23:29:37.464Z,5.21
2018-10-07T23:32:09.976Z,5.21
2018-10-07T23:34:44.800Z,5.18
2018-10-07T23:37:18.657Z,5.14
2018-10-07T23:39:52.373Z,5.11
2018-10-07T23:42:25.016Z,5.11
2018-10-07T23:44:57.847Z,5.14
2018-10-07T23:47:30.380Z,5.10
2018-10-07T23:50:04.397Z,5.08
2018-10-07T23:52:37.151Z,5.01
2018-10-07T23:55:10.401Z,4.98
